Relevés horaires Matro (Suisse)


Relevés horaires à Matro - Mercredi 13 Févr. 2019
Heure UTC1 Température [°C] Vent [km/h] Hum. [%] Pres.4 [hPa] Visi. [Km] Nébu. [octa] Préc.5 [mm] Cond.
2m. Res. Ros. Dir.2 Vit. Moy. Raf.3
23:00 1.2 1.2 -11.1 N 1.9 -- 13.0 39 850(0.7/3h) -- -- -- --
22:00 1.4 -0.3 -10.8 N 5.6 -- 13.0 40 850(0.8/3h) -- -- -- --
21:00 1.9 1.9 -11.4 ONO 3.7 -- 22.2 36 850(1.0/3h) -- -- -- --
20:00 1.9 -1.3 -11.1 NNO 11.1 -- 16.7 37 850(0.9/3h) -- -- -- --
19:00 2.2 -0.9 -11.2 NO 11.1 -- 22.2 36 850(0.6/3h) -- -- -- --
18:00 2.4 -2 -10.2 NO 18.5 -- 35.2 39 850(0.4/3h) -- -- -- --
17:00 2.4 -2.7 -9.3 NO 24.1 -- 31.5 42 850(0.3/3h) -- -- -- --
16:00 2.8 -1.5 -8.9 NO 18.5 -- 35.2 42 850(0.3/3h) -- -- -- --
15:00 3.1 -1.1 -9.2 NO 18.5 -- 25.9 40 850(0.1/3h) -- -- -- --
14:00 3.1 -0.9 -9.5 ONO 16.7 -- 24.1 39 850(-0.2/3h) -- -- -- --
13:00 2.5 -1.9 -10.0 ONO 18.5 -- 25.9 39 850(0.2/3h) -- -- -- --
12:00 1.9 -1.7 -10.4 NO 13.0 -- 40.7 40 850(0.6/3h) -- -- -- --
11:00 1.4 -1.5 -10.8 ONO 9.3 -- 22.2 40 850(1.4/3h) -- -- -- --
10:00 0.8 -4 -11.0 NNO 18.5 -- 27.8 41 850(1.6/3h) -- -- -- --
09:00 -0.1 -4.8 -11.1 NO 16.7 -- 40.7 43 850(1.7/3h) -- -- -- --
08:00 -0.6 -5.8 -11.5 NO 18.5 -- 35.2 43 850(1.2/3h) -- -- -- --
07:00 -1.0 -7.7 -11.2 NO 29.6 -- 40.7 46 850(0.9/3h) -- -- -- --
06:00 -1.8 -7.8 -11.0 NO 22.2 -- 40.7 49 850(0.4/3h) -- -- -- --
05:00 -1.7 -7.7 -10.9 NNO 22.2 -- 37.0 49 850(0.4/3h) -- -- -- --
04:00 -2.2 -8.4 -10.5 NNO 22.2 -- 31.5 53 850(0.3/3h) -- -- -- --
03:00 -2.2 -7.1 -10.7 NO 14.8 -- 40.7 52 850(0.4/3h) -- -- -- --
02:00 -2.4 -8 -10.4 NO 18.5 -- 27.8 54 850(0.6/3h) -- -- -- --
01:00 -3.1 -9.8 -10.0 NO 24.1 -- 40.7 59 850(0.7/3h) -- -- -- --

1 Coordinated Universal Time. Actuellement il est 02:00 locale et 00:00 UTC.

2 Le vent souffle depuis la direction indiquée vers la direction oposée.

3 Les rafales max. sont disponible 40 min après l'heure du relevé.

4 Pour les stations d'altitude (plus de 600m) le géopotentiel du niveau le plus proche de la pression obligatoire est indiqué.

5 Les stations disposant d'un diffuseur peuvent indiquer "trace". Cela signifie que des précipitations ont touchés le sol mais que la quantité est inférieure à 0.1 mm.

Copyright

Les données affichées sur cette page sont la propriété exclusive de Météo Suisse.

Récapitulatif de la journée
Température [°C] Vent [km/h] Ensoleillement4 [h] Precipitations totale5 [mm] Pression [Hpa]
Min1 Max.2 Moy.3 Max. Min Max.
-4.5 3.2 0 40.7 8 h 42 min 0 850.0 850.0

1 Température minimale relevée entre 18:00 UTC la veille et 18:00 UTC le jour donné.

2 Température maximale relevée entre 06:00 UTC le jour donné et 06:00 UTC le lendemain.

3 Vent moyen de la journée basé sur les relevés horaires.

4 Ensoleillement en heures relevé entre 06:00 UTC la veille et 06:00 UTC le jour donné.

5 Précipitations totales tombées entre 06:00 UTC la jour donné et 06:00 UTC le lendemain.

Graphiques horaires